createdAt,value
2019-04-23T05:31:40.400Z,103024.33
2019-04-23T05:35:00.009Z,103020.38
2019-04-23T05:41:16.626Z,103022.45
2019-04-23T05:44:21.684Z,103022.70
2019-04-23T05:47:29.092Z,103023.59
2019-04-23T05:50:44.772Z,103024.69
2019-04-23T05:57:02.005Z,103022.72
2019-04-23T05:59:54.739Z,103014.95
2019-04-23T06:03:11.986Z,103016.92
2019-04-23T06:06:20.264Z,103021.70
2019-04-23T06:09:25.305Z,103019.81
2019-04-23T06:12:31.397Z,103020.94
2019-04-23T06:15:41.769Z,103021.45
2019-04-23T06:25:30.773Z,103005.25
2019-04-23T06:28:14.631Z,103014.91
2019-04-23T06:31:24.822Z,103010.83
2019-04-23T06:34:31.423Z,103004.72
2019-04-23T06:38:16.272Z,103004.72
2019-04-23T06:40:47.602Z,103015.34
2019-04-23T06:44:05.801Z,103011.25
2019-04-23T06:50:16.567Z,103011.59
2019-04-23T06:53:21.494Z,103009.53
2019-04-23T06:56:37.447Z,103010.73
2019-04-23T06:59:37.245Z,103011.33
2019-04-23T07:02:44.516Z,103013.95
2019-04-23T07:12:21.953Z,103016.23
2019-04-23T07:15:42.862Z,103007.93
2019-04-23T07:18:35.888Z,103011.30
2019-04-23T07:21:55.900Z,102983.01
2019-04-23T07:25:00.327Z,103000.58
2019-04-23T07:28:14.611Z,103015.81
2019-04-23T07:31:20.306Z,103002.70
2019-04-23T07:34:18.097Z,103006.14
2019-04-23T07:37:37.223Z,103001.47
2019-04-23T07:41:09.693Z,103000.76
2019-04-23T07:47:46.581Z,103000.30
2019-04-23T07:54:08.091Z,102998.27
2019-04-23T07:57:15.260Z,102997.06
2019-04-23T08:00:23.662Z,103000.52
2019-04-23T08:03:22.669Z,103001.20
2019-04-23T08:06:30.007Z,103003.77
2019-04-23T08:09:51.413Z,103003.77
2019-04-23T08:12:56.256Z,102976.53
2019-04-23T08:15:55.761Z,102988.47
2019-04-23T08:19:29.287Z,102992.80
2019-04-23T08:25:56.403Z,102994.31
2019-04-23T08:35:06.449Z,102989.80
2019-04-23T08:38:27.960Z,102982.81
2019-04-23T08:41:33.448Z,102990.24
2019-04-23T08:45:05.542Z,102981.38
2019-04-23T08:48:15.604Z,102993.98
2019-04-23T08:51:31.506Z,102985.48
2019-04-23T08:54:41.319Z,102988.36
2019-04-23T08:57:33.780Z,102980.03
2019-04-23T09:00:51.912Z,102981.44
2019-04-23T09:03:45.872Z,102983.59
2019-04-23T09:07:04.947Z,102974.62
2019-04-23T09:10:12.998Z,102979.10
2019-04-23T09:16:29.519Z,102956.90
2019-04-23T09:19:42.831Z,102981.24
2019-04-23T09:29:02.495Z,102968.06
2019-04-23T09:32:40.189Z,102964.08
2019-04-23T09:35:57.275Z,102970.81
2019-04-23T09:39:37.713Z,102964.23
2019-04-23T09:43:08.902Z,102967.03
2019-04-23T09:46:23.533Z,102965.63
2019-04-23T09:49:32.469Z,102966.77
2019-04-23T09:52:48.795Z,102965.16
2019-04-23T09:55:43.699Z,102965.92
2019-04-23T09:59:02.965Z,102961.41
2019-04-23T10:01:59.481Z,102964.50
2019-04-23T10:05:03.285Z,102975.58
2019-04-23T10:08:03.045Z,102975.58
2019-04-23T10:11:00.835Z,102962.08
2019-04-23T10:14:08.270Z,102972.43
2019-04-23T10:17:17.968Z,102964.52
2019-04-23T10:20:26.656Z,102968.28
2019-04-23T10:23:33.508Z,102962.02
2019-04-23T10:26:40.152Z,102957.14
2019-04-23T10:29:47.854Z,102961.09
2019-04-23T10:32:55.893Z,102947.55
2019-04-23T10:36:08.833Z,102940.88
2019-04-23T10:39:20.798Z,102939.78
2019-04-23T10:42:21.858Z,102939.78
2019-04-23T10:45:57.629Z,102952.04
2019-04-23T10:52:53.722Z,102947.81
2019-04-23T10:56:07.434Z,102941.78
2019-04-23T10:59:03.216Z,102946.41
2019-04-23T11:05:29.167Z,102938.29
2019-04-23T11:08:30.775Z,102938.29
2019-04-23T11:11:56.628Z,102953.77
2019-04-23T11:15:18.284Z,102943.36
2019-04-23T11:18:34.881Z,102947.83
2019-04-23T11:21:34.269Z,102958.23
2019-04-23T11:27:46.978Z,102944.23
2019-04-23T11:30:55.258Z,102938.89
2019-04-23T11:34:28.203Z,102951.75
2019-04-23T11:37:25.054Z,102944.98
2019-04-23T11:43:32.738Z,102940.18
2019-04-23T11:50:01.607Z,102946.27
2019-04-23T11:52:54.405Z,102946.27
2019-04-23T11:56:12.168Z,102961.08
2019-04-23T11:59:29.138Z,102936.74
2019-04-23T12:02:45.301Z,102932.00
2019-04-23T12:06:21.898Z,102931.38
2019-04-23T12:09:40.313Z,102926.20
2019-04-23T12:15:47.839Z,102924.92
2019-04-23T12:19:27.143Z,102932.52
2019-04-23T12:22:10.466Z,102919.03
2019-04-23T12:28:20.655Z,102920.92
2019-04-23T12:31:36.448Z,102918.05
2019-04-23T12:34:44.305Z,102918.75
2019-04-23T12:38:15.481Z,102912.00
2019-04-23T12:41:21.137Z,102905.95
2019-04-23T12:44:31.532Z,102896.14
2019-04-23T12:47:49.177Z,102900.94
2019-04-23T12:50:48.499Z,102891.42
2019-04-23T12:53:49.336Z,102882.58
2019-04-23T12:57:17.469Z,102893.48
2019-04-23T13:00:19.146Z,102885.84
2019-04-23T13:03:16.948Z,102883.52
2019-04-23T13:06:20.424Z,102891.95
2019-04-23T13:12:57.646Z,102864.87
2019-04-23T13:15:53.678Z,102870.47
2019-04-23T13:19:14.675Z,102873.39
2019-04-23T13:25:39.851Z,102854.16
2019-04-23T13:29:04.971Z,102874.27
2019-04-23T13:31:50.167Z,102869.18
2019-04-23T13:35:23.051Z,102862.02
2019-04-23T13:38:19.555Z,102862.92
2019-04-23T13:44:36.095Z,102854.84
2019-04-23T13:54:07.232Z,102839.34
2019-04-23T14:00:36.895Z,102845.52
2019-04-23T14:03:35.503Z,102833.47
2019-04-23T14:06:59.520Z,102856.02
2019-04-23T14:10:00.556Z,102830.91
2019-04-23T14:16:11.634Z,102824.33
2019-04-23T14:19:23.310Z,102827.92
2019-04-23T14:22:47.702Z,102824.02
2019-04-23T14:25:31.465Z,102826.00
2019-04-23T14:28:41.899Z,102823.02
2019-04-23T14:31:53.712Z,102810.39
2019-04-23T14:35:12.961Z,102818.70
2019-04-23T14:38:27.510Z,102802.23
2019-04-23T14:44:36.446Z,102816.25
2019-04-23T14:47:52.433Z,102816.02
2019-04-23T14:51:09.872Z,102808.45
2019-04-23T14:54:15.882Z,102811.06
2019-04-23T14:57:31.703Z,102802.59
2019-04-23T15:00:33.492Z,102804.38
2019-04-23T15:10:08.514Z,102797.55
2019-04-23T15:13:06.884Z,102801.09
2019-04-23T15:19:36.865Z,102793.48
2019-04-23T15:22:57.789Z,102790.12
2019-04-23T15:26:22.595Z,102798.66
2019-04-23T15:28:43.161Z,102785.80
2019-04-23T15:32:18.661Z,102785.07
2019-04-23T15:35:29.523Z,102782.25
2019-04-23T15:45:01.572Z,102777.17
2019-04-23T15:48:11.853Z,102786.59
2019-04-23T15:51:22.922Z,102787.35
2019-04-23T15:54:25.394Z,102787.35
2019-04-23T16:01:17.322Z,102770.22
2019-04-23T16:03:57.584Z,102776.64
2019-04-23T16:07:04.579Z,102772.22
2019-04-23T16:10:49.157Z,102773.13
2019-04-23T16:14:04.781Z,102768.70
2019-04-23T16:17:02.128Z,102771.47
2019-04-23T16:23:26.392Z,102775.59
2019-04-23T16:26:37.060Z,102778.17
2019-04-23T16:29:54.198Z,102753.69
2019-04-23T16:33:08.782Z,102778.41
2019-04-23T16:42:29.866Z,102780.95
2019-04-23T16:45:41.482Z,102779.27
2019-04-23T16:49:06.771Z,102776.80
2019-04-23T16:52:01.970Z,102785.73
2019-04-23T16:55:07.487Z,102781.17
2019-04-23T16:58:31.248Z,102779.55
2019-04-23T17:01:21.026Z,102780.24
2019-04-23T17:07:46.355Z,102788.25
2019-04-23T17:11:04.453Z,102783.37
2019-04-23T17:14:01.311Z,102790.44
2019-04-23T17:16:59.841Z,102788.60
2019-04-23T17:20:21.922Z,102791.98
2019-04-23T17:26:30.208Z,102789.45
2019-04-23T17:29:41.973Z,102785.83
2019-04-23T17:33:07.875Z,102792.30
2019-04-23T17:39:28.521Z,102787.38
2019-04-23T17:43:14.767Z,102786.88
2019-04-23T17:46:27.373Z,102773.02
2019-04-23T17:49:15.621Z,102773.02
2019-04-23T17:52:26.626Z,102779.80
2019-04-23T17:55:46.277Z,102776.94
2019-04-23T17:58:43.752Z,102782.83
2019-04-23T18:02:21.387Z,102787.82
2019-04-23T18:05:06.197Z,102793.45
2019-04-23T18:08:13.810Z,102780.33
2019-04-23T18:14:21.499Z,102790.91
2019-04-23T18:21:16.073Z,102781.08
2019-04-23T18:24:22.748Z,102793.59
2019-04-23T18:27:23.574Z,102796.52
2019-04-23T18:31:11.194Z,102796.73
2019-04-23T18:37:23.721Z,102789.66
2019-04-23T18:40:28.491Z,102789.66
2019-04-23T18:43:50.678Z,102796.50
2019-04-23T18:46:49.048Z,102805.84
2019-04-23T18:49:59.265Z,102799.27
2019-04-23T18:53:09.604Z,102802.61
2019-04-23T18:59:30.740Z,102809.06
2019-04-23T19:02:58.103Z,102809.06
2019-04-23T19:13:42.146Z,102826.22
2019-04-23T19:16:36.146Z,102824.34
2019-04-23T19:19:41.954Z,102834.80
2019-04-23T19:22:56.391Z,102840.39
2019-04-23T19:25:49.787Z,102841.89
2019-04-23T19:29:06.529Z,102833.37
2019-04-23T19:32:23.927Z,102842.16
2019-04-23T19:35:41.901Z,102842.78
2019-04-23T19:38:43.800Z,102841.77
2019-04-23T19:41:59.501Z,102848.90
2019-04-23T19:48:02.754Z,102849.67
2019-04-23T19:57:35.657Z,102844.03
2019-04-23T20:00:51.995Z,102844.54
2019-04-23T20:03:52.482Z,102842.51
2019-04-23T20:07:05.580Z,102850.34
2019-04-23T20:09:51.767Z,102841.81
2019-04-23T20:13:01.518Z,102848.32
2019-04-23T20:19:23.765Z,102844.90
2019-04-23T20:22:34.032Z,102850.35
2019-04-23T20:26:05.572Z,102842.84
2019-04-23T20:32:28.952Z,102848.82
2019-04-23T20:45:06.016Z,102838.75
2019-04-23T20:48:12.762Z,102836.00
2019-04-23T20:51:18.757Z,102836.33
2019-04-23T20:54:37.101Z,102834.97
2019-04-23T21:01:09.680Z,102832.69
2019-04-23T21:04:13.258Z,102834.14
2019-04-23T21:07:16.003Z,102834.29
2019-04-23T21:13:50.715Z,102826.32
2019-04-23T21:16:41.232Z,102826.64
2019-04-23T21:20:00.935Z,102827.47
2019-04-23T21:23:04.697Z,102829.70
2019-04-23T21:25:58.846Z,102832.67
2019-04-23T21:29:13.542Z,102829.00
2019-04-23T21:32:33.263Z,102838.12
2019-04-23T21:36:07.262Z,102840.08
2019-04-23T21:39:13.612Z,102834.58
2019-04-23T21:42:22.400Z,102831.66
2019-04-23T21:45:31.913Z,102830.13
2019-04-23T21:48:56.130Z,102832.37
2019-04-23T22:01:24.463Z,102818.44
2019-04-23T22:04:47.616Z,102818.22
2019-04-23T22:07:49.773Z,102824.13
2019-04-23T22:11:00.457Z,102823.02
2019-04-23T22:14:06.217Z,102820.28
2019-04-23T22:17:03.024Z,102815.38
2019-04-23T22:20:21.366Z,102816.90
2019-04-23T22:23:18.597Z,102809.47
2019-04-23T22:26:37.847Z,102815.34
2019-04-23T22:29:40.094Z,102816.35
2019-04-23T22:33:02.628Z,102800.44
2019-04-23T22:36:04.641Z,102803.34
2019-04-23T22:39:03.144Z,102808.57
2019-04-23T22:42:21.465Z,102803.47
2019-04-23T22:48:36.158Z,102801.91
2019-04-23T22:51:46.275Z,102794.62
2019-04-23T22:54:57.274Z,102791.33
2019-04-23T23:01:19.976Z,102792.59
2019-04-23T23:04:34.964Z,102788.54
2019-04-23T23:07:38.968Z,102795.52
2019-04-23T23:10:46.145Z,102788.66
2019-04-23T23:14:09.143Z,102788.75
2019-04-23T23:17:09.149Z,102795.77
2019-04-23T23:20:13.956Z,102784.56
2019-04-23T23:26:24.238Z,102788.10
2019-04-23T23:29:42.581Z,102781.82
2019-04-23T23:32:49.162Z,102782.34
2019-04-23T23:35:53.732Z,102783.48
2019-04-23T23:42:11.096Z,102777.77
2019-04-23T23:48:20.078Z,102784.31
2019-04-23T23:51:57.345Z,102785.18
2019-04-23T23:54:36.151Z,102784.78
2019-04-23T23:57:51.164Z,102789.64
